Chauncey, Illinois
Current Conditions -  °F | °C
As of 9:53 AM on Thursday 27 Nov 2014 (Local Time) from KLWV Reporting Station
Haze Haze  
Wind Chill: 16°   Ceiling: 5500
Heat Index: 27°   Visibility: 4mi
Dew Point: 22°   Wind: 14mph
Humidity: 81%   Direction: 290°WNW
Pressure: 30.43"   Gusts: NA
Location:  38.793°N, 87.8326°W
Report Text: KLWV 271553Z AUTO 29012KT 4SM HZ OVC055 M03/M06 A3043 RMK AO2 SLP310 T10281056
Loading
Personal Weather Stations






























Interactive Weather Map New forecast layout! Learn more

10-Day Weather Forecast

Advertisements
Track Severe Weather on mobile